Aviation Digital Data Service (ADDS)

Output produced by METARs form (1351 UTC 26 May 2018)
found at http://www.aviationweather.gov/adds/metars/
 
TAF KDAA 260100Z 2601/2707 20009KT 9999 BKN080 QNH2983INS 
     BECMG 2618/2619 22012KT 9000 -SHRA BKN030 OVC060 QNH2982INS 
     TEMPO 2620/2623 22025G35KT 8000 -TSRA BKN020CB 
     BECMG 2623/2624 VRB06KT 8000 -SHRA OVC030 QNH2986INS TX29/2618Z TN20/2609Z LAST NO AMDS AFT 2601 NEXT 2909
       
KDAB 261127Z 2612/2712 11004KT P6SM SCT110 BKN200 
     FM261500 11010KT P6SM VCSH SCT025 BKN040 OVC250 
     FM262000 12012KT P6SM -RA VCSH FEW025 BKN080 OVC150 
     FM270100 12009KT P6SM VCSH SCT025 BKN100 OVC200 
     FM270800 13011KT P6SM -SHRA SCT020 OVC070
       
KDAG 261125Z 2612/2712 26018KT P6SM SKC 
     FM261600 26023G32KT P6SM SKC 
     FM270800 25015KT P6SM SKC
       
KDAL 261135Z 2612/2712 16007KT P6SM FEW100 
     FM262200 11007KT P6SM SCT080
       
KDAN 261140Z 2612/2712 21006KT P6SM OVC015 
     FM261430 22008KT P6SM BKN025 OVC090 
     FM261700 22010G17KT P6SM VCSH BKN030 OVC080 
     FM262300 20005KT P6SM BKN040 OVC120
       
KDAY 261120Z 2612/2712 19006KT P6SM SCT040 OVC100 
     FM261700 21010KT P6SM VCTS BKN035CB BKN090 
     TEMPO 2618/2622 3SM -TSRA BKN025CB 
     FM262300 24007KT P6SM VCTS BKN035CB 
     FM270100 22004KT P6SM SCT050 BKN200
       
KDBQ 261120Z 2612/2712 21005KT P6SM SCT250 
     FM261500 25006KT P6SM SKC
       
KDCA 261140Z 2612/2718 18007KT P6SM BKN150 
     FM261800 19010G17KT P6SM VCTS BKN050CB 
     FM262300 22008KT P6SM VCSH BKN050 
     FM270600 22007KT P6SM BKN080 
     FM271200 22005KT P6SM SCT080 
     FM271700 22007KT P6SM VCTS BKN050CB
       
KDDC 261301Z 2613/2712 20008KT P6SM SKC 
     FM261700 15015KT P6SM FEW250
       
KDEC 261323Z 2613/2712 23007KT P6SM SCT006 SCT250 
     FM261400 27005KT P6SM FEW050 SCT250 
     FM270200 22004KT P6SM FEW250 
     FM270900 VRB03KT 4SM BR FEW200
       
KDEN 261129Z 2612/2718 20011KT P6SM SKC 
     FM261400 24006KT P6SM SKC 
     FM261700 10006KT P6SM FEW110 
     FM262100 13012G19KT P6SM FEW120 SCT220 
     FM270100 17013G20KT P6SM FEW120 BKN200 
     FM270600 18012KT P6SM FEW120 BKN200
       
KDET 261127Z 2612/2712 21004KT P6SM VCSH SCT070 BKN120 
     FM261500 22008KT P6SM VCTS SCT050CB SCT100 BKN200 
     FM262000 18008KT P6SM VCTS BKN050CB BKN100 BKN200 
     FM270100 16004KT P6SM SCT150 
     FM270800 VRB03KT 6SM BR SCT250
       
KDFW 261135Z 2612/2718 15007KT P6SM FEW100 
     FM262200 11007KT P6SM SCT080
       
KDHN 261120Z 2612/2712 12005KT P6SM SKC 
     FM261600 14007KT P6SM VCTS SCT040CB 
     FM270000 11004KT P6SM BKN050
       
KDHT 261120Z 2612/2712 15008KT P6SM SCT250 
     FM261800 16014G23KT P6SM BKN250 
     FM270100 14012KT P6SM BKN250
       
KDIK 261130Z 2612/2712 22005KT P6SM SKC 
     FM261900 16006KT P6SM SKC 
     FM262100 13007KT P6SM SCT250
       
KDLH 261139Z 2612/2712 26004KT P6SM SCT100 
     FM261600 09006KT P6SM BKN100 
     FM262300 08008KT P6SM FEW070
       
KDLS 261130Z 2612/2712 30021G29KT P6SM SCT130 
     FM261800 31025G35KT P6SM SKC 
     FM270200 28009KT P6SM SKC
       
TAF KDMA 260614Z 2606/2712 VRB06KT 9999 BKN250 QNH2989INS 
     BECMG 2615/2616 28009KT 9999 BKN250 QNH2986INS 
     BECMG 2617/2618 24012G18KT 9999 BKN250 QNH2984INS 
     TEMPO 2621/2701 24020G30KT 520009 
     BECMG 2702/2703 25012KT 9999 BKN250 QNH2983INS TX37/2622Z TN17/2612Z
       
KDMN 261138Z 2612/2712 26005KT P6SM BKN250 
     FM261800 25011G19KT P6SM SCT180 OVC250 
     FM270300 27011KT P6SM SCT200
       
KDNL 261129Z 2612/2712 14005KT P6SM OVC003 
     FM261430 19004KT P6SM BKN020 
     FM261700 18010KT P6SM VCSH SCT035 
     TEMPO 2618/2622 SHRA 
     FM270800 VRB03KT 3SM BR OVC006
       
TAF KDOV 260800Z 2608/2714 19009KT 9999 FEW050 WS020/23040KT QNH2982INS 
     BECMG 2614/2615 22009KT 9999 FEW030 SCT050 QNH2980INS 
     TEMPO 2618/2622 24015G25KT 6000 -TSRA OVC030CB 
     BECMG 2623/2624 23009KT 8000 -SHRA SCT030 BKN050 QNH2984INS 
     BECMG 2702/2703 VRB06KT 8000 -SHRA SCT010 BKN020 QNH2985INS 
     BECMG 2713/2714 VRB06KT 9999 NSW SCT020 BKN040 QNH2991INS TX32/2620Z TN21/2610Z
       
KDPA 261122Z 2612/2712 24007KT P6SM SCT050 SCT250
       
KDRO 261139Z 2612/2712 VRB04KT P6SM SCT250 
     FM261800 14010G20KT P6SM SCT250 
     FM262100 19012G25KT P6SM SCT250 
     FM270400 25008KT P6SM BKN150
       
KDRT 261140Z 2612/2712 10009KT P6SM FEW250 
     FM261500 15010KT P6SM FEW250
       
KDSM 261120Z 2612/2712 VRB05KT P6SM SKC
       
KDTW 261127Z 2612/2718 21004KT P6SM VCSH SCT070 BKN120 
     FM261500 22008KT P6SM VCTS SCT050CB SCT100 BKN200 
     FM262000 18008KT P6SM VCTS BKN050CB BKN100 BKN200 
     FM270100 16004KT P6SM SCT150 
     FM270800 VRB03KT 6SM BR SCT250 
     FM271300 22005KT P6SM SCT250
       
KDUG 261120Z 2612/2712 VRB04KT P6SM SCT200 BKN250 
     FM261700 20011G17KT P6SM SCT150 BKN250 
     FM262000 24018G28KT P6SM SCT150 BKN250 
     FM270300 28012KT P6SM SCT250 
     FM270600 32007KT P6SM SKC
       
KDUJ 261124Z 2612/2712 24004KT P6SM SKC 
     FM270000 22007KT P6SM VCTS BKN040CB 
     FM270900 VRB03KT P6SM BKN040
       
KDVL 261120Z 2612/2712 VRB03KT P6SM SKC 
     FM270500 08005KT P6SM FEW250 
     FM270900 11005KT P6SM SCT250
       
TAF AMD KDYS 261215Z 2612/2714 19015G25KT 9999 FEW150 QNH2972INS 
     BECMG 2623/2624 18010KT 9999 SKC QNH2974INS TX38/2621Z TN20/2612Z